Time,TemperatureF,DewpointF,PressureIn,WindDirection,WindDirectionDegrees,WindSpeedMPH,WindSpeedGustMPH,Humidity,HourlyPrecipIn,Conditions,Clouds,dailyrainin,SoftwareType,DateUTC
2013-01-10 00:00:00,40.5,28.1,30.03,NNW,338,2.9,2.9,61,0.00,RA,,0.00,WeatherDisplay:10.37,2013-01-10 05:00:00,
2013-01-10 00:03:00,40.5,28.1,30.03,NNW,338,2.9,2.9,61,0.00,RA,,0.00,WeatherDisplay:10.37,2013-01-10 05:03:00,
2013-01-10 00:04:00,40.5,28.1,30.03,NNW,338,2.9,2.9,61,0.00,RA,,0.00,WeatherDisplay:10.37,2013-01-10 05:04:00,
2013-01-10 00:09:00,40.5,28.1,30.03,NNW,338,2.8,2.8,61,0.00,RA,,0.00,WeatherDisplay:10.37,2013-01-10 05:09:00,
2013-01-10 00:10:00,40.5,28.1,30.03,NNW,338,2.8,3.5,61,0.00,CLR,,0.00,WeatherDisplay:10.37,2013-01-10 05:10:00,
2013-01-10 00:15:00,40.8,27.2,30.03,SW,225,3.0,4.6,58,0.00,CLR,,0.00,WeatherDisplay:10.37,2013-01-10 05:15:00,
2013-01-10 00:20:00,40.8,27.2,30.03,WSW,248,2.9,4.6,58,0.00,CLR,,0.00,WeatherDisplay:10.37,2013-01-10 05:20:00,
2013-01-10 00:25:00,41.0,27.8,30.03,WSW,248,2.8,12.7,59,0.00,CLR,,0.00,WeatherDisplay:10.37,2013-01-10 05:25:00,
2013-01-10 00:30:00,40.6,27.4,30.03,NW,315,3.2,5.8,59,0.00,CLR,,0.00,WeatherDisplay:10.37,2013-01-10 05:30:00,
2013-01-10 00:35:00,40.5,27.2,30.03,West,270,2.8,10.4,59,0.00,CLR,,0.00,WeatherDisplay:10.37,2013-01-10 05:35:00,
2013-01-10 00:40:00,40.3,27.5,30.03,NW,315,2.6,2.6,60,0.00,CLR,,0.00,WeatherDisplay:10.37,2013-01-10 05:40:00,
2013-01-10 00:45:00,40.1,27.7,30.03,WSW,248,3.0,8.1,61,0.00,CLR,,0.00,WeatherDisplay:10.37,2013-01-10 05:45:00,
2013-01-10 00:50:00,39.9,27.5,30.03,WSW,248,3.1,9.2,61,0.00,CLR,,0.00,WeatherDisplay:10.37,2013-01-10 05:50:00,
2013-01-10 00:55:00,40.3,27.9,30.03,WSW,248,3.0,3.5,61,0.00,CLR,,0.00,WeatherDisplay:10.37,2013-01-10 05:55:00,
2013-01-10 01:00:00,40.3,27.9,30.04,ENE,68,2.8,4.6,61,0.00,CLR,,0.00,WeatherDisplay:10.37,2013-01-10 06:00:00,
2013-01-10 01:05:00,40.5,27.7,30.04,West,270,2.3,3.5,60,0.00,BKN,,0.00,WeatherDisplay:10.37,2013-01-10 06:05:00,
2013-01-10 01:10:00,40.5,28.1,30.04,NE,45,2.4,8.1,61,0.00,BKN,,0.00,WeatherDisplay:10.37,2013-01-10 06:10:00,
2013-01-10 01:15:00,39.9,27.9,30.04,South,180,2.5,9.0,62,0.00,BKN,,0.00,WeatherDisplay:10.37,2013-01-10 06:15:00,
2013-01-10 01:20:00,40.3,27.9,30.02,SSW,202,3.0,6.9,61,0.00,BKN,,0.00,WeatherDisplay:10.37,2013-01-10 06:20:00,
2013-01-10 01:25:00,40.5,28.5,30.02,NW,315,3.3,4.6,62,0.00,BKN,,0.00,WeatherDisplay:10.37,2013-01-10 06:25:00,
2013-01-10 01:30:00,40.8,28.8,30.02,WNW,292,3.3,11.5,62,0.00,BKN,,0.00,WeatherDisplay:10.37,2013-01-10 06:30:00,
2013-01-10 01:35:00,40.6,29.4,30.02,East,90,3.6,5.8,64,0.00,BKN,,0.00,WeatherDisplay:10.37,2013-01-10 06:35:00,
2013-01-10 01:40:00,40.5,29.6,30.06,NE,45,4.3,17.3,65,0.00,BKN,,0.00,WeatherDisplay:10.37,2013-01-10 06:40:00,
2013-01-10 01:45:00,40.1,28.5,30.06,SSW,202,5.4,8.1,63,0.00,BKN,,0.00,WeatherDisplay:10.37,2013-01-10 06:45:00,
2013-01-10 01:50:00,40.1,28.5,30.06,NNE,22,5.5,12.7,63,0.00,BKN,,0.00,WeatherDisplay:10.37,2013-01-10 06:50:00,
2013-01-10 01:55:00,39.7,28.5,30.06,WSW,248,5.6,5.6,64,0.00,BKN,,0.00,WeatherDisplay:10.37,2013-01-10 06:55:00,
2013-01-10 02:00:00,39.2,28.4,30.08,WSW,248,4.9,7.1,65,0.00,BKN,,0.00,WeatherDisplay:10.37,2013-01-10 07:00:00,
2013-01-10 02:05:00,39.0,28.6,30.08,SSW,202,3.9,4.9,66,0.00,SCT,,0.00,WeatherDisplay:10.37,2013-01-10 07:05:00,
2013-01-10 02:10:00,38.7,28.6,30.08,WSW,248,3.5,6.9,67,0.00,SCT,,0.00,WeatherDisplay:10.37,2013-01-10 07:10:00,
2013-01-10 02:15:00,38.5,28.1,30.08,WNW,292,3.7,3.7,66,0.00,SCT,,0.00,WeatherDisplay:10.37,2013-01-10 07:15:00,
2013-01-10 02:20:00,38.5,28.5,30.08,SSW,202,3.7,4.6,67,0.00,SCT,,0.00,WeatherDisplay:10.37,2013-01-10 07:20:00,
2013-01-10 02:25:00,38.5,28.5,30.08,SW,225,4.3,6.9,67,0.00,SCT,,0.00,WeatherDisplay:10.37,2013-01-10 07:25:00,
2013-01-10 02:30:00,38.5,28.5,30.08,WNW,292,4.3,8.1,67,0.00,SCT,,0.00,WeatherDisplay:10.37,2013-01-10 07:30:00,
2013-01-10 02:35:00,38.3,28.3,30.08,NNW,338,4.4,9.2,67,0.00,SCT,,0.00,WeatherDisplay:10.37,2013-01-10 07:35:00,
2013-01-10 02:40:00,38.3,27.9,30.08,NE,45,4.3,5.8,66,0.00,SCT,,0.00,WeatherDisplay:10.37,2013-01-10 07:40:00,
2013-01-10 02:45:00,38.3,28.3,30.08,NW,315,3.6,3.6,67,0.00,SCT,,0.00,WeatherDisplay:10.37,2013-01-10 07:45:00,
2013-01-10 02:50:00,38.3,27.9,30.08,WNW,292,3.9,5.8,66,0.00,SCT,,0.00,WeatherDisplay:10.37,2013-01-10 07:50:00,
2013-01-10 02:55:00,38.1,27.8,30.08,NNW,338,3.7,3.7,66,0.00,SCT,,0.00,WeatherDisplay:10.37,2013-01-10 07:55:00,
2013-01-10 03:00:00,37.9,27.6,30.09,NW,315,3.7,7.2,66,0.00,SCT,,0.00,WeatherDisplay:10.37,2013-01-10 08:00:00,
2013-01-10 03:05:00,37.9,27.6,30.09,NW,315,3.7,6.9,66,0.00,BKN,,0.00,WeatherDisplay:10.37,2013-01-10 08:05:00,
2013-01-10 03:10:00,38.1,27.8,30.09,NW,315,3.7,13.8,66,0.00,BKN,,0.00,WeatherDisplay:10.37,2013-01-10 08:10:00,
2013-01-10 03:15:00,38.3,27.2,30.09,SSE,158,3.5,3.5,64,0.00,BKN,,0.00,WeatherDisplay:10.37,2013-01-10 08:15:00,
2013-01-10 03:20:00,38.3,27.2,30.11,NNW,338,3.6,5.8,64,0.00,BKN,,0.00,WeatherDisplay:10.37,2013-01-10 08:20:00,
2013-01-10 03:25:00,38.3,27.2,30.11,NW,315,4.3,8.1,64,0.00,BKN,,0.00,WeatherDisplay:10.37,2013-01-10 08:25:00,
2013-01-10 03:30:00,38.1,27.0,30.11,NW,315,4.1,4.1,64,0.00,BKN,,0.00,WeatherDisplay:10.37,2013-01-10 08:30:00,
2013-01-10 03:35:00,38.1,27.4,30.11,South,180,3.5,3.5,65,0.00,BKN,,0.00,WeatherDisplay:10.37,2013-01-10 08:35:00,
2013-01-10 03:40:00,38.3,27.2,30.11,NNW,338,3.3,6.9,64,0.00,BKN,,0.00,WeatherDisplay:10.37,2013-01-10 08:40:00,
2013-01-10 03:45:00,38.3,27.2,30.11,WSW,248,3.7,4.6,64,0.00,BKN,,0.00,WeatherDisplay:10.37,2013-01-10 08:45:00,
2013-01-10 03:50:00,37.9,26.8,30.11,NW,315,3.7,4.6,64,0.00,BKN,,0.00,WeatherDisplay:10.37,2013-01-10 08:50:00,
2013-01-10 03:55:00,37.9,26.5,30.11,WSW,248,2.6,5.9,63,0.00,BKN,,0.00,WeatherDisplay:10.37,2013-01-10 08:55:00,
2013-01-10 04:00:00,37.9,26.5,30.13,WNW,292,3.1,5.8,63,0.00,BKN,,0.00,WeatherDisplay:10.37,2013-01-10 09:00:00,
2013-01-10 04:05:00,38.1,26.2,30.13,NNE,22,3.6,6.9,62,0.00,CLR,,0.00,WeatherDisplay:10.37,2013-01-10 09:05:00,
2013-01-10 04:10:00,38.1,26.6,30.13,SW,225,3.6,4.6,63,0.00,CLR,,0.00,WeatherDisplay:10.37,2013-01-10 09:10:00,
2013-01-10 04:15:00,38.1,26.2,30.13,WSW,248,4.0,7.9,62,0.00,CLR,,0.00,WeatherDisplay:10.37,2013-01-10 09:15:00,
2013-01-10 04:20:00,37.9,26.5,30.14,NE,45,3.6,3.6,63,0.00,CLR,,0.00,WeatherDisplay:10.37,2013-01-10 09:20:00,
2013-01-10 04:25:00,37.6,26.1,30.14,NNE,22,3.2,4.0,63,0.00,CLR,,0.00,WeatherDisplay:10.37,2013-01-10 09:25:00,
2013-01-10 04:30:00,37.6,26.1,30.14,SW,225,3.0,3.5,63,0.00,CLR,,0.00,WeatherDisplay:10.37,2013-01-10 09:30:00,
2013-01-10 04:35:00,37.6,26.5,30.14,NW,315,3.2,3.2,64,0.00,CLR,,0.00,WeatherDisplay:10.37,2013-01-10 09:35:00,
2013-01-10 04:40:00,37.2,26.2,30.15,SW,225,2.5,2.5,64,0.00,CLR,,0.00,WeatherDisplay:10.37,2013-01-10 09:40:00,
2013-01-10 04:45:00,37.2,26.5,30.15,SSW,202,1.6,1.6,65,0.00,CLR,,0.00,WeatherDisplay:10.37,2013-01-10 09:45:00,
2013-01-10 04:50:00,36.9,26.2,30.15,NW,315,2.0,3.5,65,0.00,CLR,,0.00,WeatherDisplay:10.37,2013-01-10 09:50:00,
2013-01-10 04:55:00,36.5,26.2,30.15,NNW,338,1.5,1.5,66,0.00,CLR,,0.00,WeatherDisplay:10.37,2013-01-10 09:55:00,
2013-01-10 05:00:00,36.5,26.2,30.16,SW,225,1.7,4.6,66,0.00,CLR,,0.00,WeatherDisplay:10.37,2013-01-10 10:00:00,
2013-01-10 05:05:00,36.3,26.0,30.16,WSW,248,1.6,2.3,66,0.00,CLR,,0.00,WeatherDisplay:10.37,2013-01-10 10:05:00,
2013-01-10 05:10:00,36.1,26.2,30.16,NW,315,1.4,2.3,67,0.00,CLR,,0.00,WeatherDisplay:10.37,2013-01-10 10:10:00,
2013-01-10 05:15:00,35.8,26.2,30.16,WNW,292,1.0,2.6,68,0.00,CLR,,0.00,WeatherDisplay:10.37,2013-01-10 10:15:00,
2013-01-10 05:20:00,35.8,26.2,30.17,East,90,0.9,2.6,68,0.00,CLR,,0.00,WeatherDisplay:10.37,2013-01-10 10:20:00,
2013-01-10 05:25:00,35.1,25.9,30.17,NNW,338,0.8,0.0,69,0.00,CLR,,0.00,WeatherDisplay:10.37,2013-01-10 10:25:00,
2013-01-10 05:30:00,34.9,26.1,30.17,SSW,202,0.9,2.6,70,0.00,CLR,,0.00,WeatherDisplay:10.37,2013-01-10 10:30:00,
2013-01-10 05:35:00,34.7,25.9,30.17,SW,225,1.3,3.5,70,0.00,CLR,,0.00,WeatherDisplay:10.37,2013-01-10 10:35:00,
2013-01-10 05:40:00,34.7,25.9,30.20,NW,315,1.4,3.5,70,0.00,CLR,,0.00,WeatherDisplay:10.37,2013-01-10 10:40:00,
2013-01-10 05:45:00,34.9,26.1,30.20,NE,45,1.4,2.3,70,0.00,CLR,,0.00,WeatherDisplay:10.37,2013-01-10 10:45:00,
2013-01-10 05:50:00,34.9,26.1,30.20,WSW,248,1.1,3.5,70,0.00,CLR,,0.00,WeatherDisplay:10.37,2013-01-10 10:50:00,
2013-01-10 05:55:00,34.7,26.3,30.20,NNW,338,1.1,2.3,71,0.00,CLR,,0.00,WeatherDisplay:10.37,2013-01-10 10:55:00,
2013-01-10 06:00:00,34.3,25.9,30.20,WSW,248,0.8,0.0,71,0.00,CLR,,0.00,WeatherDisplay:10.37,2013-01-10 11:00:00,
2013-01-10 06:05:00,34.3,25.9,30.20,WSW,248,0.8,0.0,71,0.00,CLR,,0.00,WeatherDisplay:10.37,2013-01-10 11:05:00,
2013-01-10 06:10:00,34.2,26.1,30.20,SSE,158,1.3,3.5,72,0.00,CLR,,0.00,WeatherDisplay:10.37,2013-01-10 11:10:00,
2013-01-10 06:15:00,34.0,25.6,30.20,WSW,248,1.6,2.3,71,0.00,CLR,,0.00,WeatherDisplay:10.37,2013-01-10 11:15:00,
2013-01-10 06:20:00,34.2,25.7,30.22,NE,45,1.1,0.0,71,0.00,CLR,,0.00,WeatherDisplay:10.37,2013-01-10 11:20:00,
2013-01-10 06:25:00,34.3,25.9,30.22,NE,45,1.1,1.1,71,0.00,CLR,,0.00,WeatherDisplay:10.37,2013-01-10 11:25:00,
2013-01-10 06:30:00,34.0,25.2,30.22,NNE,22,0.8,2.3,70,0.00,CLR,,0.00,WeatherDisplay:10.37,2013-01-10 11:30:00,
2013-01-10 06:35:00,34.0,25.2,30.22,SSW,202,0.6,2.3,70,0.00,CLR,,0.00,WeatherDisplay:10.37,2013-01-10 11:35:00,
2013-01-10 06:40:00,33.4,24.7,30.30,NW,315,0.5,0.0,70,0.00,CLR,,0.00,WeatherDisplay:10.37,2013-01-10 11:40:00,
2013-01-10 06:45:00,32.9,24.5,30.30,WNW,292,0.1,0.0,71,0.00,CLR,,0.00,WeatherDisplay:10.37,2013-01-10 11:45:00,
2013-01-10 06:50:00,32.7,24.3,30.30,SW,225,0.1,1.1,71,0.00,CLR,,0.00,WeatherDisplay:10.37,2013-01-10 11:50:00,
2013-01-10 06:55:00,32.5,24.5,30.30,NW,315,0.3,1.1,72,0.00,CLR,,0.00,WeatherDisplay:10.37,2013-01-10 11:55:00,
2013-01-10 07:00:00,32.2,24.5,30.25,NNW,338,0.7,2.3,73,0.00,CLR,,0.00,WeatherDisplay:10.37,2013-01-10 12:00:00,
2013-01-10 07:05:00,32.4,24.7,30.25,WNW,292,1.1,2.3,73,0.00,CLR,,0.00,WeatherDisplay:10.37,2013-01-10 12:05:00,
2013-01-10 07:11:00,32.5,24.5,30.25,SSW,202,1.3,3.5,72,0.00,CLR,,0.00,WeatherDisplay:10.37,2013-01-10 12:11:00,
2013-01-10 07:16:00,32.7,25.0,30.25,SW,225,1.1,2.3,73,0.00,CLR,,0.00,WeatherDisplay:10.37,2013-01-10 12:16:00,
2013-01-10 07:21:00,32.5,24.5,30.25,NW,315,0.9,1.1,72,0.00,CLR,,0.00,WeatherDisplay:10.37,2013-01-10 12:21:00,
2013-01-10 07:26:00,32.5,24.5,30.25,WNW,292,0.8,1.1,72,0.00,CLR,,0.00,WeatherDisplay:10.37,2013-01-10 12:26:00,
2013-01-10 07:31:00,32.5,24.5,30.25,WNW,292,0.9,3.5,72,0.00,CLR,,0.00,WeatherDisplay:10.37,2013-01-10 12:31:00,
2013-01-10 07:36:00,32.5,24.5,30.25,NW,315,1.5,1.5,72,0.00,CLR,,0.00,WeatherDisplay:10.37,2013-01-10 12:36:00,
2013-01-10 07:41:00,32.5,24.5,30.26,NNW,338,1.6,2.3,72,0.00,CLR,,0.00,WeatherDisplay:10.37,2013-01-10 12:41:00,
2013-01-10 07:46:00,32.7,24.3,30.26,WNW,292,1.7,2.3,71,0.00,CLR,,0.00,WeatherDisplay:10.37,2013-01-10 12:46:00,
2013-01-10 07:51:00,33.1,24.4,30.26,NW,315,2.0,2.3,70,0.00,CLR,,0.00,WeatherDisplay:10.37,2013-01-10 12:51:00,
2013-01-10 07:56:00,33.1,24.4,30.26,SW,225,1.5,2.3,70,0.00,CLR,,0.00,WeatherDisplay:10.37,2013-01-10 12:56:00,
2013-01-10 08:01:00,33.4,24.4,30.26,SW,225,1.1,8.1,69,0.00,CLR,,0.00,WeatherDisplay:10.37,2013-01-10 13:01:00,
2013-01-10 08:06:00,33.6,24.5,30.26,NNW,338,1.4,1.4,69,0.00,CLR,,0.00,WeatherDisplay:10.37,2013-01-10 13:06:00,
2013-01-10 08:11:00,34.3,24.5,30.26,SW,225,2.1,2.3,67,0.00,CLR,,0.00,WeatherDisplay:10.37,2013-01-10 13:11:00,
2013-01-10 08:16:00,34.7,24.5,30.26,NW,315,2.0,2.0,66,0.00,CLR,,0.00,WeatherDisplay:10.37,2013-01-10 13:16:00,
2013-01-10 08:21:00,34.7,24.5,30.29,South,180,2.0,2.3,66,0.00,CLR,,0.00,WeatherDisplay:10.37,2013-01-10 13:21:00,
2013-01-10 08:26:00,34.9,24.3,30.29,SSE,158,1.8,0.0,65,0.00,CLR,,0.00,WeatherDisplay:10.37,2013-01-10 13:26:00,
2013-01-10 08:31:00,35.1,24.5,30.29,NNW,338,1.1,0.0,65,0.00,CLR,,0.00,WeatherDisplay:10.37,2013-01-10 13:31:00,
2013-01-10 08:36:00,34.9,24.3,30.29,NNW,338,1.4,2.3,65,0.00,CLR,,0.00,WeatherDisplay:10.37,2013-01-10 13:36:00,
2013-01-10 08:41:00,35.2,24.6,30.30,WSW,248,1.5,4.6,65,0.00,CLR,,0.00,WeatherDisplay:10.37,2013-01-10 13:41:00,
2013-01-10 08:46:00,35.4,24.8,30.30,NW,315,1.8,4.6,65,0.00,CLR,,0.00,WeatherDisplay:10.37,2013-01-10 13:46:00,
2013-01-10 08:51:00,35.6,25.0,30.30,SW,225,1.8,2.6,65,0.00,CLR,,0.00,WeatherDisplay:10.37,2013-01-10 13:51:00,
2013-01-10 08:56:00,35.6,25.0,30.30,East,90,1.7,2.3,65,0.00,CLR,,0.00,WeatherDisplay:10.37,2013-01-10 13:56:00,
2013-01-10 09:01:00,36.0,25.0,30.32,NE,45,1.5,8.1,64,0.00,CLR,,0.00,WeatherDisplay:10.37,2013-01-10 14:01:00,
2013-01-10 09:06:00,36.3,24.9,30.32,NNE,22,2.0,2.3,63,0.00,CLR,,0.00,WeatherDisplay:10.37,2013-01-10 14:06:00,
2013-01-10 09:11:00,36.3,24.9,30.32,SW,225,2.1,3.5,63,0.00,CLR,,0.00,WeatherDisplay:10.37,2013-01-10 14:11:00,
2013-01-10 09:16:00,36.9,25.4,30.32,WNW,292,1.8,3.9,63,0.00,CLR,,0.00,WeatherDisplay:10.37,2013-01-10 14:16:00,
2013-01-10 09:21:00,37.0,25.2,30.34,NNW,338,1.6,2.3,62,0.00,CLR,,0.00,WeatherDisplay:10.37,2013-01-10 14:21:00,
2013-01-10 09:26:00,37.0,25.2,30.34,SSW,202,1.1,1.1,62,0.00,CLR,,0.00,WeatherDisplay:10.37,2013-01-10 14:26:00,
2013-01-10 09:31:00,37.0,25.2,30.34,NNW,338,1.5,4.6,62,0.00,CLR,,0.00,WeatherDisplay:10.37,2013-01-10 14:31:00,
2013-01-10 09:36:00,37.6,24.9,30.34,NE,45,1.8,1.8,60,0.00,CLR,,0.00,WeatherDisplay:10.37,2013-01-10 14:36:00,
2013-01-10 09:41:00,37.9,24.9,30.35,NNE,22,2.2,9.2,59,0.00,CLR,,0.00,WeatherDisplay:10.37,2013-01-10 14:41:00,
2013-01-10 09:46:00,38.3,25.2,30.35,SSW,202,2.5,8.1,59,0.00,CLR,,0.00,WeatherDisplay:10.37,2013-01-10 14:46:00,
2013-01-10 09:51:00,38.1,25.4,30.35,SW,225,2.0,3.7,60,0.00,CLR,,0.00,WeatherDisplay:10.37,2013-01-10 14:51:00,
2013-01-10 09:56:00,38.3,25.2,30.35,NNE,22,2.0,4.6,59,0.00,CLR,,0.00,WeatherDisplay:10.37,2013-01-10 14:56:00,
2013-01-10 10:01:00,38.5,25.4,30.37,WSW,248,2.8,2.8,59,0.00,CLR,,0.00,WeatherDisplay:10.37,2013-01-10 15:01:00,
2013-01-10 10:06:00,38.7,25.1,30.37,NNW,338,2.9,6.3,58,0.00,CLR,,0.00,WeatherDisplay:10.37,2013-01-10 15:06:00,
2013-01-10 10:11:00,38.8,24.9,30.37,North,0,3.2,4.6,57,0.00,CLR,,0.00,WeatherDisplay:10.37,2013-01-10 15:11:00,
2013-01-10 10:16:00,39.0,25.1,30.37,NNW,338,3.5,8.1,57,0.00,CLR,,0.00,WeatherDisplay:10.37,2013-01-10 15:16:00,
2013-01-10 10:21:00,39.0,25.5,30.40,NNW,338,3.2,6.9,58,0.00,CLR,,0.00,WeatherDisplay:10.37,2013-01-10 15:21:00,
2013-01-10 10:26:00,39.0,25.1,30.40,WNW,292,3.0,5.1,57,0.00,CLR,,0.00,WeatherDisplay:10.37,2013-01-10 15:26:00,
2013-01-10 10:31:00,39.4,25.4,30.40,NNE,22,3.0,3.0,57,0.00,CLR,,0.00,WeatherDisplay:10.37,2013-01-10 15:31:00,
2013-01-10 10:36:00,39.4,25.4,30.40,WSW,248,3.2,9.2,57,0.00,CLR,,0.00,WeatherDisplay:10.37,2013-01-10 15:36:00,
2013-01-10 10:41:00,39.6,25.6,30.40,SW,225,3.1,3.5,57,0.00,CLR,,0.00,WeatherDisplay:10.37,2013-01-10 15:41:00,
2013-01-10 10:46:00,39.7,25.3,30.40,WSW,248,3.2,8.1,56,0.00,CLR,,0.00,WeatherDisplay:10.37,2013-01-10 15:46:00,
2013-01-10 10:51:00,39.7,25.3,30.40,South,180,3.6,4.6,56,0.00,CLR,,0.00,WeatherDisplay:10.37,2013-01-10 15:51:00,
2013-01-10 10:56:00,39.7,25.3,30.40,NNE,22,2.9,5.2,56,0.00,CLR,,0.00,WeatherDisplay:10.37,2013-01-10 15:56:00,
2013-01-10 11:01:00,40.1,25.6,30.38,NNW,338,3.0,10.4,56,0.00,CLR,,0.00,WeatherDisplay:10.37,2013-01-10 16:01:00,
2013-01-10 11:06:00,39.9,25.5,30.38,NNE,22,3.6,5.8,56,0.00,CLR,,0.00,WeatherDisplay:10.37,2013-01-10 16:06:00,
2013-01-10 11:11:00,40.1,25.6,30.38,WSW,248,3.3,4.6,56,0.00,CLR,,0.00,WeatherDisplay:10.37,2013-01-10 16:11:00,
2013-01-10 11:16:00,40.1,25.6,30.38,WNW,292,2.0,2.3,56,0.00,CLR,,0.00,WeatherDisplay:10.37,2013-01-10 16:16:00,
2013-01-10 11:21:00,40.3,25.8,30.38,NW,315,2.2,3.5,56,0.00,CLR,,0.00,WeatherDisplay:10.37,2013-01-10 16:21:00,
2013-01-10 11:26:00,40.5,26.0,30.38,NNW,338,2.2,2.3,56,0.00,CLR,,0.00,WeatherDisplay:10.37,2013-01-10 16:26:00,
2013-01-10 11:31:00,40.5,26.0,30.38,NNW,338,2.3,3.5,56,0.00,CLR,,0.00,WeatherDisplay:10.37,2013-01-10 16:31:00,
2013-01-10 11:36:00,40.6,26.2,30.38,NE,45,2.5,2.5,56,0.00,CLR,,0.00,WeatherDisplay:10.37,2013-01-10 16:36:00,
2013-01-10 11:41:00,40.5,25.5,30.38,NNW,338,3.0,6.9,55,0.00,CLR,,0.00,WeatherDisplay:10.37,2013-01-10 16:41:00,
2013-01-10 11:46:00,40.6,25.7,30.38,WNW,292,3.3,4.9,55,0.00,CLR,,0.00,WeatherDisplay:10.37,2013-01-10 16:46:00,
2013-01-10 11:51:00,40.6,25.7,30.38,West,270,2.8,4.6,55,0.00,CLR,,0.00,WeatherDisplay:10.37,2013-01-10 16:51:00,
2013-01-10 11:56:00,40.5,25.5,30.38,WSW,248,2.5,3.5,55,0.00,CLR,,0.00,WeatherDisplay:10.37,2013-01-10 16:56:00,
2013-01-10 12:01:00,40.6,25.7,30.37,SW,225,2.5,4.6,55,0.00,CLR,,0.00,WeatherDisplay:10.37,2013-01-10 17:01:00,
2013-01-10 12:06:00,40.6,25.7,30.37,SW,225,2.5,2.5,55,0.00,CLR,,0.00,WeatherDisplay:10.37,2013-01-10 17:06:00,
2013-01-10 12:11:00,40.8,25.4,30.37,NNW,338,3.2,3.5,54,0.00,CLR,,0.00,WeatherDisplay:10.37,2013-01-10 17:11:00,
2013-01-10 12:16:00,40.8,25.0,30.37,NNW,338,3.8,4.6,53,0.00,CLR,,0.00,WeatherDisplay:10.37,2013-01-10 17:16:00,
2013-01-10 12:21:00,41.2,25.3,30.38,SW,225,3.3,8.1,53,0.00,CLR,,0.00,WeatherDisplay:10.37,2013-01-10 17:21:00,
2013-01-10 12:26:00,41.2,25.3,30.38,WNW,292,2.5,2.5,53,0.00,CLR,,0.00,WeatherDisplay:10.37,2013-01-10 17:26:00,
2013-01-10 12:31:00,41.2,25.8,30.38,NNE,22,2.2,2.3,54,0.00,CLR,,0.00,WeatherDisplay:10.37,2013-01-10 17:31:00,
2013-01-10 12:36:00,41.2,25.8,30.38,North,0,2.3,4.6,54,0.00,CLR,,0.00,WeatherDisplay:10.37,2013-01-10 17:36:00,
2013-01-10 12:41:00,41.0,25.6,30.37,West,270,2.9,3.5,54,0.00,CLR,,0.00,WeatherDisplay:10.37,2013-01-10 17:41:00,
2013-01-10 12:46:00,41.4,25.9,30.37,WNW,292,2.5,2.5,54,0.00,CLR,,0.00,WeatherDisplay:10.37,2013-01-10 17:46:00,
2013-01-10 12:51:00,41.4,25.5,30.37,WSW,248,2.6,3.5,53,0.00,CLR,,0.00,WeatherDisplay:10.37,2013-01-10 17:51:00,
2013-01-10 12:56:00,41.5,25.7,30.37,NW,315,3.2,3.5,53,0.00,CLR,,0.00,WeatherDisplay:10.37,2013-01-10 17:56:00,
2013-01-10 13:01:00,41.5,25.2,30.38,NNE,22,3.5,4.6,52,0.00,CLR,,0.00,WeatherDisplay:10.37,2013-01-10 18:01:00,
2013-01-10 13:06:00,41.9,25.5,30.38,WSW,248,2.8,2.8,52,0.00,CLR,,0.00,WeatherDisplay:10.37,2013-01-10 18:06:00,
2013-01-10 13:11:00,41.5,25.2,30.38,ENE,68,2.0,2.3,52,0.00,CLR,,0.00,WeatherDisplay:10.37,2013-01-10 18:11:00,
2013-01-10 13:16:00,41.9,25.5,30.38,NE,45,2.0,3.5,52,0.00,CLR,,0.00,WeatherDisplay:10.37,2013-01-10 18:16:00,
2013-01-10 13:21:00,41.9,25.1,30.38,NNW,338,2.5,5.8,51,0.00,CLR,,0.00,WeatherDisplay:10.37,2013-01-10 18:21:00,
2013-01-10 13:26:00,42.1,25.7,30.38,South,180,2.9,3.5,52,0.00,CLR,,0.00,WeatherDisplay:10.37,2013-01-10 18:26:00,
2013-01-10 13:31:00,42.3,24.9,30.38,NW,315,2.9,6.9,50,0.00,CLR,,0.00,WeatherDisplay:10.37,2013-01-10 18:31:00,
2013-01-10 13:36:00,42.3,24.9,30.38,SW,225,3.0,5.1,50,0.00,CLR,,0.00,WeatherDisplay:10.37,2013-01-10 18:36:00,
2013-01-10 13:41:00,43.7,25.8,30.40,WNW,292,3.2,4.6,49,0.00,CLR,,0.00,WeatherDisplay:10.37,2013-01-10 18:41:00,
2013-01-10 13:46:00,47.1,27.4,30.40,WSW,248,3.2,3.2,46,0.00,CLR,,0.00,WeatherDisplay:10.37,2013-01-10 18:46:00,
2013-01-10 13:51:00,45.1,26.1,30.40,WSW,248,2.6,3.5,47,0.00,CLR,,0.00,WeatherDisplay:10.37,2013-01-10 18:51:00,
2013-01-10 13:56:00,44.2,25.8,30.40,SW,225,2.6,2.9,48,0.00,CLR,,0.00,WeatherDisplay:10.37,2013-01-10 18:56:00,
2013-01-10 14:01:00,45.0,26.9,30.40,WNW,292,2.6,8.1,49,0.00,CLR,,0.00,WeatherDisplay:10.37,2013-01-10 19:01:00,
2013-01-10 14:06:00,45.5,26.9,30.40,SW,225,2.3,3.5,48,0.00,CLR,,0.00,WeatherDisplay:10.37,2013-01-10 19:06:00,
2013-01-10 14:11:00,44.1,25.6,30.40,NNW,338,2.6,4.6,48,0.00,CLR,,0.00,WeatherDisplay:10.37,2013-01-10 19:11:00,
2013-01-10 14:16:00,43.7,25.8,30.40,WSW,248,2.5,2.5,49,0.00,CLR,,0.00,WeatherDisplay:10.37,2013-01-10 19:16:00,
2013-01-10 14:21:00,43.7,26.3,30.41,SSE,158,2.0,5.8,50,0.00,CLR,,0.00,WeatherDisplay:10.37,2013-01-10 19:21:00,
2013-01-10 14:26:00,43.3,24.9,30.41,WSW,248,2.8,3.5,48,0.00,CLR,,0.00,WeatherDisplay:10.37,2013-01-10 19:26:00,
2013-01-10 14:31:00,43.2,24.8,30.41,SW,225,3.7,6.9,48,0.00,CLR,,0.00,WeatherDisplay:10.37,2013-01-10 19:31:00,
2013-01-10 14:36:00,42.8,24.9,30.41,NW,315,3.2,3.2,49,0.00,CLR,,0.00,WeatherDisplay:10.37,2013-01-10 19:36:00,
2013-01-10 14:41:00,42.6,25.3,30.42,SW,225,3.3,4.6,50,0.00,CLR,,0.00,WeatherDisplay:10.37,2013-01-10 19:41:00,
2013-01-10 14:46:00,42.6,24.8,30.42,WSW,248,3.5,8.1,49,0.00,CLR,,0.00,WeatherDisplay:10.37,2013-01-10 19:46:00,
2013-01-10 14:51:00,41.9,24.6,30.42,NNE,22,2.9,6.9,50,0.00,CLR,,0.00,WeatherDisplay:10.37,2013-01-10 19:51:00,
2013-01-10 14:56:00,41.9,25.1,30.42,NNW,338,2.2,2.2,51,0.00,CLR,,0.00,WeatherDisplay:10.37,2013-01-10 19:56:00,
2013-01-10 15:01:00,41.7,24.9,30.40,NNW,338,2.0,2.4,51,0.00,CLR,,0.00,WeatherDisplay:10.37,2013-01-10 20:01:00,
2013-01-10 15:06:00,41.4,25.0,30.40,NE,45,1.8,1.8,52,0.00,CLR,,0.00,WeatherDisplay:10.37,2013-01-10 20:06:00,
2013-01-10 15:11:00,41.5,25.2,30.40,NNE,22,2.0,3.5,52,0.00,CLR,,0.00,WeatherDisplay:10.37,2013-01-10 20:11:00,
2013-01-10 15:16:00,41.2,24.9,30.40,NNW,338,2.1,6.9,52,0.00,CLR,,0.00,WeatherDisplay:10.37,2013-01-10 20:16:00,
2013-01-10 15:21:00,41.4,24.6,30.38,SSW,202,2.6,4.6,51,0.00,CLR,,0.00,WeatherDisplay:10.37,2013-01-10 20:21:00,
2013-01-10 15:26:00,41.4,24.6,30.38,WNW,292,2.5,2.5,51,0.00,CLR,,0.00,WeatherDisplay:10.37,2013-01-10 20:26:00,
2013-01-10 15:31:00,41.4,24.6,30.38,SE,135,2.0,3.5,51,0.00,CLR,,0.00,WeatherDisplay:10.37,2013-01-10 20:31:00,
2013-01-10 15:36:00,41.2,24.4,30.38,NNE,22,2.2,5.8,51,0.00,CLR,,0.00,WeatherDisplay:10.37,2013-01-10 20:36:00,
2013-01-10 15:41:00,41.2,24.4,30.36,WSW,248,2.4,6.9,51,0.00,CLR,,0.00,WeatherDisplay:10.37,2013-01-10 20:41:00,
2013-01-10 15:46:00,40.6,24.4,30.36,SSE,158,2.4,3.5,52,0.00,CLR,,0.00,WeatherDisplay:10.37,2013-01-10 20:46:00,
2013-01-10 15:51:00,40.5,24.7,30.36,East,90,1.7,1.7,53,0.00,CLR,,0.00,WeatherDisplay:10.37,2013-01-10 20:51:00,
2013-01-10 15:56:00,40.5,24.2,30.36,East,90,1.5,4.6,52,0.00,CLR,,0.00,WeatherDisplay:10.37,2013-01-10 20:56:00,
2013-01-10 16:01:00,40.1,24.3,30.38,NE,45,1.6,2.3,53,0.00,CLR,,0.00,WeatherDisplay:10.37,2013-01-10 21:01:00,
2013-01-10 16:06:00,40.1,24.8,30.38,NNW,338,1.4,2.3,54,0.00,CLR,,0.00,WeatherDisplay:10.37,2013-01-10 21:06:00,
2013-01-10 16:11:00,39.6,24.7,30.38,WNW,292,1.6,4.6,55,0.00,CLR,,0.00,WeatherDisplay:10.37,2013-01-10 21:11:00,
2013-01-10 16:17:00,39.7,24.4,30.38,NE,45,2.4,4.6,54,0.00,CLR,,0.00,WeatherDisplay:10.37,2013-01-10 21:17:00,
2013-01-10 16:22:00,39.2,24.4,30.38,WNW,292,2.3,5.8,55,0.00,CLR,,0.00,WeatherDisplay:10.37,2013-01-10 21:22:00,
2013-01-10 16:27:00,39.0,24.6,30.38,SSW,202,1.8,2.3,56,0.00,CLR,,0.00,WeatherDisplay:10.37,2013-01-10 21:27:00,
2013-01-10 16:32:00,38.7,24.3,30.38,WSW,248,1.6,1.6,56,0.00,CLR,,0.00,WeatherDisplay:10.37,2013-01-10 21:32:00,
2013-01-10 16:37:00,38.5,24.6,30.38,NE,45,1.3,2.3,57,0.00,CLR,,0.00,WeatherDisplay:10.37,2013-01-10 21:37:00,
2013-01-10 16:42:00,38.3,24.8,30.40,SW,225,1.1,2.6,58,0.00,CLR,,0.00,WeatherDisplay:10.37,2013-01-10 21:42:00,
2013-01-10 16:47:00,38.3,24.8,30.40,SW,225,1.1,2.3,58,0.00,CLR,,0.00,WeatherDisplay:10.37,2013-01-10 21:47:00,
2013-01-10 16:52:00,38.3,24.8,30.40,NNE,22,1.6,2.3,58,0.00,CLR,,0.00,WeatherDisplay:10.37,2013-01-10 21:52:00,
2013-01-10 16:57:00,38.1,24.2,30.40,NNW,338,2.0,2.3,57,0.00,CLR,,0.00,WeatherDisplay:10.37,2013-01-10 21:57:00,
2013-01-10 17:02:00,37.9,24.5,30.39,South,180,1.5,0.0,58,0.00,CLR,,0.00,WeatherDisplay:10.37,2013-01-10 22:02:00,
2013-01-10 17:07:00,37.6,24.5,30.39,WNW,292,0.9,3.5,59,0.00,CLR,,0.00,WeatherDisplay:10.37,2013-01-10 22:07:00,
2013-01-10 17:12:00,37.6,24.5,30.39,WSW,248,1.5,2.3,59,0.00,CLR,,0.00,WeatherDisplay:10.37,2013-01-10 22:12:00,
2013-01-10 17:17:00,37.6,24.5,30.39,WNW,292,1.5,1.5,59,0.00,CLR,,0.00,WeatherDisplay:10.37,2013-01-10 22:17:00,
2013-01-10 17:22:00,37.8,24.3,30.40,WNW,292,1.7,2.3,58,0.00,CLR,,0.00,WeatherDisplay:10.37,2013-01-10 22:22:00,
2013-01-10 17:27:00,37.0,24.4,30.40,NNE,22,1.3,1.3,60,0.00,CLR,,0.00,WeatherDisplay:10.37,2013-01-10 22:27:00,
2013-01-10 17:32:00,36.9,25.0,30.40,SW,225,0.9,2.3,62,0.00,CLR,,0.00,WeatherDisplay:10.37,2013-01-10 22:32:00,
2013-01-10 17:38:00,36.1,24.4,30.40,SW,225,0.9,3.5,62,0.00,CLR,,0.00,WeatherDisplay:10.37,2013-01-10 22:38:00,
2013-01-10 17:43:00,36.0,24.2,30.48,NNW,338,0.7,0.0,62,0.00,CLR,,0.00,WeatherDisplay:10.37,2013-01-10 22:43:00,
2013-01-10 17:48:00,35.6,24.2,30.48,NNW,338,0.3,0.0,63,0.00,CLR,,0.00,WeatherDisplay:10.37,2013-01-10 22:48:00,
2013-01-10 17:53:00,35.1,24.1,30.48,WSW,248,0.3,1.1,64,0.00,CLR,,0.00,WeatherDisplay:10.37,2013-01-10 22:53:00,
2013-01-10 17:59:00,34.3,23.8,30.49,WSW,248,0.3,1.1,65,0.00,CLR,,0.00,WeatherDisplay:10.37,2013-01-10 22:59:00,
2013-01-10 18:04:00,34.2,23.6,30.49,WSW,248,0.1,0.0,65,0.00,CLR,,0.00,WeatherDisplay:10.37,2013-01-10 23:04:00,
2013-01-10 18:09:00,33.4,23.3,30.49,WSW,248,0.0,0.0,66,0.00,CLR,,0.00,WeatherDisplay:10.37,2013-01-10 23:09:00,
2013-01-10 18:14:00,32.9,23.5,30.49,SW,225,0.0,0.0,68,0.00,CLR,,0.00,WeatherDisplay:10.37,2013-01-10 23:14:00,
2013-01-10 18:20:00,32.7,23.3,30.50,WSW,248,0.0,0.0,68,0.00,CLR,,0.00,WeatherDisplay:10.37,2013-01-10 23:20:00,
2013-01-10 18:25:00,32.5,23.5,30.50,WNW,292,0.1,1.1,69,0.00,CLR,,0.00,WeatherDisplay:10.37,2013-01-10 23:25:00,
2013-01-10 18:30:00,32.4,23.7,30.50,NW,315,0.2,0.0,70,0.00,CLR,,0.00,WeatherDisplay:10.37,2013-01-10 23:30:00,
2013-01-10 18:35:00,31.8,23.8,30.50,SW,225,0.3,1.1,72,0.00,CLR,,0.00,WeatherDisplay:10.37,2013-01-10 23:35:00,
2013-01-10 18:40:00,31.5,23.5,30.46,SE,135,0.2,0.0,72,0.00,CLR,,0.00,WeatherDisplay:10.37,2013-01-10 23:40:00,
2013-01-10 18:45:00,31.1,23.1,30.46,East,90,0.1,0.0,72,0.00,CLR,,0.00,WeatherDisplay:10.37,2013-01-10 23:45:00,
2013-01-10 18:50:00,31.1,23.5,30.46,West,270,0.1,0.0,73,0.00,CLR,,0.00,WeatherDisplay:10.37,2013-01-10 23:50:00,
2013-01-10 18:56:00,30.6,22.9,30.46,SSW,202,0.0,0.0,73,0.00,CLR,,0.00,WeatherDisplay:10.37,2013-01-10 23:56:00,
2013-01-10 19:01:00,30.7,23.8,30.43,SSW,202,0.2,1.1,75,0.00,CLR,,0.00,WeatherDisplay:10.37,2013-01-11 00:01:00,
2013-01-10 19:06:00,30.6,23.6,30.43,SSW,202,0.2,0.0,75,0.00,CLR,,0.00,WeatherDisplay:10.37,2013-01-11 00:06:00,
2013-01-10 19:12:00,30.0,23.1,30.43,SE,135,0.1,0.0,75,0.00,CLR,,0.00,WeatherDisplay:10.37,2013-01-11 00:12:00,
2013-01-10 19:18:00,29.8,22.9,30.43,SW,225,0.1,0.0,75,0.00,CLR,,0.00,WeatherDisplay:10.37,2013-01-11 00:18:00,
2013-01-10 19:23:00,30.0,23.4,30.45,WNW,292,0.5,1.3,76,0.00,CLR,,0.00,WeatherDisplay:10.37,2013-01-11 00:23:00,
2013-01-10 19:29:00,30.4,23.7,30.45,WNW,292,1.3,2.3,76,0.00,CLR,,0.00,WeatherDisplay:10.37,2013-01-11 00:29:00,
2013-01-10 19:34:00,30.2,23.5,30.45,NNE,22,1.5,1.5,76,0.00,CLR,,0.00,WeatherDisplay:10.37,2013-01-11 00:34:00,
2013-01-10 19:39:00,30.4,23.4,30.45,NNW,338,0.8,0.0,75,0.00,CLR,,0.00,WeatherDisplay:10.37,2013-01-11 00:39:00,
2013-01-10 19:44:00,30.4,23.7,30.45,WNW,292,0.2,1.5,76,0.00,CLR,,0.00,WeatherDisplay:10.37,2013-01-11 00:44:00,
2013-01-10 19:49:00,30.4,23.7,30.45,WSW,248,0.3,0.0,76,0.00,CLR,,0.00,WeatherDisplay:10.37,2013-01-11 00:49:00,
2013-01-10 19:55:00,30.4,23.7,30.45,SW,225,0.2,0.0,76,0.00,CLR,,0.00,WeatherDisplay:10.37,2013-01-11 00:55:00,
2013-01-10 20:00:00,30.0,23.4,30.45,NE,45,0.0,0.0,76,0.00,CLR,,0.00,WeatherDisplay:10.37,2013-01-11 01:00:00,
2013-01-10 20:06:00,29.7,23.0,30.45,NE,45,0.0,0.0,76,0.00,CLR,,0.00,WeatherDisplay:10.37,2013-01-11 01:06:00,
2013-01-10 20:12:00,29.7,23.0,30.45,WNW,292,0.0,0.0,76,0.00,CLR,,0.00,WeatherDisplay:10.37,2013-01-11 01:12:00,
2013-01-10 20:17:00,29.7,23.0,30.45,East,90,0.0,0.0,76,0.00,CLR,,0.00,WeatherDisplay:10.37,2013-01-11 01:17:00,
2013-01-10 20:23:00,29.7,23.6,30.53,WNW,292,0.2,0.0,78,0.00,CLR,,0.00,WeatherDisplay:10.37,2013-01-11 01:23:00,
2013-01-10 20:28:00,29.7,23.3,30.53,WNW,292,0.2,0.0,77,0.00,CLR,,0.00,WeatherDisplay:10.37,2013-01-11 01:28:00,
2013-01-10 20:33:00,29.7,23.6,30.53,WSW,248,0.2,0.0,78,0.00,CLR,,0.00,WeatherDisplay:10.37,2013-01-11 01:33:00,
2013-01-10 20:38:00,29.1,22.8,30.53,ENE,68,0.1,0.0,77,0.00,CLR,,0.00,WeatherDisplay:10.37,2013-01-11 01:38:00,
2013-01-10 20:43:00,28.9,22.9,30.55,ENE,68,0.0,0.0,78,0.00,CLR,,0.00,WeatherDisplay:10.37,2013-01-11 01:43:00,
2013-01-10 20:48:00,28.9,22.9,30.55,NNW,338,0.0,0.0,78,0.00,CLR,,0.00,WeatherDisplay:10.37,2013-01-11 01:48:00,
2013-01-10 20:53:00,28.9,22.9,30.55,West,270,0.0,1.1,78,0.00,CLR,,0.00,WeatherDisplay:10.37,2013-01-11 01:53:00,
2013-01-10 20:58:00,28.9,22.9,30.55,North,0,0.0,0.0,78,0.00,CLR,,0.00,WeatherDisplay:10.37,2013-01-11 01:58:00,
2013-01-10 21:03:00,28.9,22.9,30.55,WNW,292,0.3,0.0,78,0.00,CLR,,0.00,WeatherDisplay:10.37,2013-01-11 02:03:00,
2013-01-10 21:08:00,28.9,22.9,30.55,WNW,292,0.3,0.0,78,0.00,CLR,,0.00,WeatherDisplay:10.37,2013-01-11 02:08:00,
2013-01-10 21:13:00,28.9,23.2,30.55,WNW,292,0.3,1.1,79,0.00,CLR,,0.00,WeatherDisplay:10.37,2013-01-11 02:13:00,
2013-01-10 21:18:00,28.9,23.2,30.56,East,90,0.6,1.1,79,0.00,CLR,,0.00,WeatherDisplay:10.37,2013-01-11 02:18:00,
2013-01-10 21:23:00,28.9,23.2,30.56,NNW,338,0.3,1.1,79,0.00,CLR,,0.00,WeatherDisplay:10.37,2013-01-11 02:23:00,
2013-01-10 21:28:00,28.6,22.9,30.56,ENE,68,0.3,1.1,79,0.00,CLR,,0.00,WeatherDisplay:10.37,2013-01-11 02:28:00,
2013-01-10 21:33:00,28.9,22.9,30.56,SSE,158,0.3,0.0,78,0.00,CLR,,0.00,WeatherDisplay:10.37,2013-01-11 02:33:00,
2013-01-10 21:38:00,28.9,23.2,30.56,WSW,248,0.6,2.3,79,0.00,CLR,,0.00,WeatherDisplay:10.37,2013-01-11 02:38:00,
2013-01-10 21:44:00,29.1,23.1,30.55,WSW,248,0.7,1.1,78,0.00,CLR,,0.00,WeatherDisplay:10.37,2013-01-11 02:44:00,
2013-01-10 21:49:00,29.3,23.3,30.55,SW,225,0.3,0.0,78,0.00,CLR,,0.00,WeatherDisplay:10.37,2013-01-11 02:49:00,
2013-01-10 21:54:00,29.1,23.1,30.55,East,90,0.3,1.1,78,0.00,CLR,,0.00,WeatherDisplay:10.37,2013-01-11 02:54:00,
2013-01-10 22:00:00,28.9,23.2,30.57,WSW,248,0.7,1.8,79,0.00,CLR,,0.00,WeatherDisplay:10.37,2013-01-11 03:00:00,
2013-01-10 22:05:00,29.7,23.6,30.57,WNW,292,1.1,2.3,78,0.00,CLR,,0.00,WeatherDisplay:10.37,2013-01-11 03:05:00,
2013-01-10 22:10:00,29.5,23.5,30.57,ESE,112,1.1,2.3,78,0.00,CLR,,0.00,WeatherDisplay:10.37,2013-01-11 03:10:00,
2013-01-10 22:15:00,29.7,23.6,30.57,SE,135,0.7,0.0,78,0.00,CLR,,0.00,WeatherDisplay:10.37,2013-01-11 03:15:00,
2013-01-10 22:20:00,29.1,23.1,30.57,North,0,0.3,0.0,78,0.00,CLR,,0.00,WeatherDisplay:10.37,2013-01-11 03:20:00,
2013-01-10 22:25:00,29.5,23.5,30.57,WNW,292,0.3,1.1,78,0.00,CLR,,0.00,WeatherDisplay:10.37,2013-01-11 03:25:00,
2013-01-10 22:31:00,29.7,23.6,30.57,SW,225,0.7,1.1,78,0.00,CLR,,0.00,WeatherDisplay:10.37,2013-01-11 03:31:00,
2013-01-10 22:36:00,29.7,23.6,30.57,NNE,22,0.3,0.0,78,0.00,CLR,,0.00,WeatherDisplay:10.37,2013-01-11 03:36:00,
2013-01-10 22:41:00,29.3,23.3,30.48,WNW,292,0.2,1.1,78,0.00,CLR,,0.00,WeatherDisplay:10.37,2013-01-11 03:41:00,
2013-01-10 22:46:00,29.7,23.6,30.48,WSW,248,0.6,1.1,78,0.00,CLR,,0.00,WeatherDisplay:10.37,2013-01-11 03:46:00,
2013-01-10 22:51:00,29.7,23.6,30.48,SE,135,0.5,0.0,78,0.00,CLR,,0.00,WeatherDisplay:10.37,2013-01-11 03:51:00,
2013-01-10 22:57:00,29.7,23.6,30.48,East,90,0.3,1.1,78,0.00,CLR,,0.00,WeatherDisplay:10.37,2013-01-11 03:57:00,
2013-01-10 23:02:00,29.7,23.6,30.49,East,90,0.3,0.0,78,0.00,CLR,,0.00,WeatherDisplay:10.37,2013-01-11 04:02:00,
2013-01-10 23:07:00,29.3,23.3,30.49,East,90,0.3,0.0,78,0.00,CLR,,0.00,WeatherDisplay:10.37,2013-01-11 04:07:00,
2013-01-10 23:12:00,29.1,23.1,30.49,East,90,0.0,0.0,78,0.00,CLR,,0.00,WeatherDisplay:10.37,2013-01-11 04:12:00,
2013-01-10 23:18:00,28.9,22.9,30.48,East,90,0.1,0.0,78,0.00,CLR,,0.00,WeatherDisplay:10.37,2013-01-11 04:18:00,
2013-01-10 23:23:00,28.9,22.9,30.48,SSW,202,0.3,2.3,78,0.00,CLR,,0.00,WeatherDisplay:10.37,2013-01-11 04:23:00,
2013-01-10 23:28:00,28.9,23.2,30.48,SSW,202,0.3,0.0,79,0.00,CLR,,0.00,WeatherDisplay:10.37,2013-01-11 04:28:00,
2013-01-10 23:33:00,28.9,22.9,30.48,South,180,0.3,0.0,78,0.00,CLR,,0.00,WeatherDisplay:10.37,2013-01-11 04:33:00,
2013-01-10 23:38:00,28.6,22.9,30.48,SW,225,0.1,0.0,79,0.00,CLR,,0.00,WeatherDisplay:10.37,2013-01-11 04:38:00,
2013-01-10 23:43:00,28.4,22.7,30.48,SSE,158,0.2,0.0,79,0.00,CLR,,0.00,WeatherDisplay:10.37,2013-01-11 04:43:00,
2013-01-10 23:48:00,28.2,22.5,30.48,NE,45,0.3,1.1,79,0.00,CLR,,0.00,WeatherDisplay:10.37,2013-01-11 04:48:00,
2013-01-10 23:53:00,28.2,22.5,30.48,NE,45,0.3,0.0,79,0.00,CLR,,0.00,WeatherDisplay:10.37,2013-01-11 04:53:00,
2013-01-10 23:58:00,28.2,22.5,30.48,NE,45,0.3,1.1,79,0.00,CLR,,0.00,WeatherDisplay:10.37,2013-01-11 04:58:00,